sensor_id;sensor_type;location;lat;lon;timestamp;pressure;altitude;pressure_sealevel;temperature;humidity
69257;BME280;56376;53.356;-1.748;2023-05-10T00:01:05;98944.22;;;10.37;100.00
69257;BME280;56376;53.356;-1.748;2023-05-10T00:03:30;98942.69;;;10.33;100.00
69257;BME280;56376;53.356;-1.748;2023-05-10T00:05:56;98934.75;;;10.35;100.00
69257;BME280;56376;53.356;-1.748;2023-05-10T00:08:21;98952.06;;;10.37;100.00
69257;BME280;56376;53.356;-1.748;2023-05-10T00:10:47;98944.56;;;10.30;100.00
69257;BME280;56376;53.356;-1.748;2023-05-10T00:13:12;98947.91;;;10.33;100.00
69257;BME280;56376;53.356;-1.748;2023-05-10T00:15:38;98949.88;;;10.28;100.00
69257;BME280;56376;53.356;-1.748;2023-05-10T00:18:03;98943.84;;;10.26;100.00
69257;BME280;56376;53.356;-1.748;2023-05-10T00:20:28;98945.59;;;10.26;100.00
69257;BME280;56376;53.356;-1.748;2023-05-10T00:22:54;98953.34;;;10.27;100.00
69257;BME280;56376;53.356;-1.748;2023-05-10T00:25:19;98955.97;;;10.27;100.00
69257;BME280;56376;53.356;-1.748;2023-05-10T00:27:46;98947.28;;;10.27;100.00
69257;BME280;56376;53.356;-1.748;2023-05-10T00:30:12;98938.88;;;10.20;100.00
69257;BME280;56376;53.356;-1.748;2023-05-10T00:32:37;98943.19;;;10.21;100.00
69257;BME280;56376;53.356;-1.748;2023-05-10T00:35:03;98945.00;;;10.19;100.00
69257;BME280;56376;53.356;-1.748;2023-05-10T00:37:28;98945.00;;;10.19;100.00
69257;BME280;56376;53.356;-1.748;2023-05-10T00:39:53;98941.91;;;10.11;100.00
69257;BME280;56376;53.356;-1.748;2023-05-10T00:42:19;98949.63;;;10.12;100.00
69257;BME280;56376;53.356;-1.748;2023-05-10T00:44:44;98950.75;;;10.07;100.00
69257;BME280;56376;53.356;-1.748;2023-05-10T00:47:09;98954.22;;;10.07;100.00
69257;BME280;56376;53.356;-1.748;2023-05-10T00:49:36;98947.38;;;10.05;100.00
69257;BME280;56376;53.356;-1.748;2023-05-10T00:52:01;98943.97;;;10.03;100.00
69257;BME280;56376;53.356;-1.748;2023-05-10T00:54:28;98949.19;;;10.03;100.00
69257;BME280;56376;53.356;-1.748;2023-05-10T00:56:53;98952.88;;;9.99;100.00
69257;BME280;56376;53.356;-1.748;2023-05-10T00:59:19;98956.50;;;9.94;100.00
69257;BME280;56376;53.356;-1.748;2023-05-10T01:01:45;98955.72;;;9.92;100.00
69257;BME280;56376;53.356;-1.748;2023-05-10T01:04:15;98949.75;;;9.90;100.00
69257;BME280;56376;53.356;-1.748;2023-05-10T01:06:43;98953.34;;;9.88;100.00
69257;BME280;56376;53.356;-1.748;2023-05-10T01:09:09;98947.19;;;9.89;100.00
69257;BME280;56376;53.356;-1.748;2023-05-10T01:11:36;98948.16;;;9.86;100.00
69257;BME280;56376;53.356;-1.748;2023-05-10T01:14:02;98948.13;;;9.88;100.00
69257;BME280;56376;53.356;-1.748;2023-05-10T01:16:32;98947.38;;;9.84;100.00
69257;BME280;56376;53.356;-1.748;2023-05-10T01:18:58;98945.75;;;9.82;100.00
69257;BME280;56376;53.356;-1.748;2023-05-10T01:21:45;98948.50;;;9.79;100.00
69257;BME280;56376;53.356;-1.748;2023-05-10T01:27:14;98954.81;;;9.73;100.00
69257;BME280;56376;53.356;-1.748;2023-05-10T01:30:08;98956.69;;;9.69;100.00
69257;BME280;56376;53.356;-1.748;2023-05-10T01:32:55;98951.66;;;9.65;100.00
69257;BME280;56376;53.356;-1.748;2023-05-10T01:43:28;98954.91;;;9.49;100.00
69257;BME280;56376;53.356;-1.748;2023-05-10T01:46:07;98954.19;;;9.46;100.00
69257;BME280;56376;53.356;-1.748;2023-05-10T01:48:44;98946.56;;;9.41;100.00
69257;BME280;56376;53.356;-1.748;2023-05-10T01:51:15;98956.28;;;9.38;100.00
69257;BME280;56376;53.356;-1.748;2023-05-10T01:53:42;98952.03;;;9.35;100.00
69257;BME280;56376;53.356;-1.748;2023-05-10T01:56:10;98943.56;;;9.30;100.00
69257;BME280;56376;53.356;-1.748;2023-05-10T01:58:39;98957.34;;;9.32;100.00
69257;BME280;56376;53.356;-1.748;2023-05-10T02:01:09;98958.28;;;9.31;100.00
69257;BME280;56376;53.356;-1.748;2023-05-10T02:03:35;98948.88;;;9.27;100.00
69257;BME280;56376;53.356;-1.748;2023-05-10T02:06:01;98948.16;;;9.23;100.00
69257;BME280;56376;53.356;-1.748;2023-05-10T02:08:28;98962.94;;;9.23;100.00
69257;BME280;56376;53.356;-1.748;2023-05-10T02:10:56;98956.09;;;9.20;100.00
69257;BME280;56376;53.356;-1.748;2023-05-10T02:13:23;98955.31;;;9.18;100.00
69257;BME280;56376;53.356;-1.748;2023-05-10T02:15:50;98952.75;;;9.17;100.00
69257;BME280;56376;53.356;-1.748;2023-05-10T02:18:16;98955.34;;;9.17;100.00
69257;BME280;56376;53.356;-1.748;2023-05-10T02:20:45;98955.50;;;9.14;100.00
69257;BME280;56376;53.356;-1.748;2023-05-10T02:23:12;98949.47;;;9.12;100.00
69257;BME280;56376;53.356;-1.748;2023-05-10T02:25:38;98947.81;;;9.10;100.00
69257;BME280;56376;53.356;-1.748;2023-05-10T02:28:05;98953.00;;;9.10;100.00
69257;BME280;56376;53.356;-1.748;2023-05-10T02:30:33;98958.34;;;9.07;100.00
69257;BME280;56376;53.356;-1.748;2023-05-10T02:33:00;98953.13;;;9.07;100.00
69257;BME280;56376;53.356;-1.748;2023-05-10T02:35:28;98955.78;;;9.06;100.00
69257;BME280;56376;53.356;-1.748;2023-05-10T02:37:54;98957.59;;;9.04;100.00
69257;BME280;56376;53.356;-1.748;2023-05-10T02:40:21;98957.69;;;9.02;100.00
69257;BME280;56376;53.356;-1.748;2023-05-10T02:42:48;98955.16;;;8.99;100.00
69257;BME280;56376;53.356;-1.748;2023-05-10T02:45:20;98963.06;;;8.98;100.00
69257;BME280;56376;53.356;-1.748;2023-05-10T02:47:46;98963.09;;;8.96;100.00
69257;BME280;56376;53.356;-1.748;2023-05-10T02:50:12;98960.59;;;8.95;100.00
69257;BME280;56376;53.356;-1.748;2023-05-10T02:52:47;98956.38;;;8.91;100.00
69257;BME280;56376;53.356;-1.748;2023-05-10T02:55:16;98971.19;;;8.90;100.00
69257;BME280;56376;53.356;-1.748;2023-05-10T02:57:49;98960.75;;;8.90;100.00
69257;BME280;56376;53.356;-1.748;2023-05-10T03:00:16;98971.06;;;8.93;100.00
69257;BME280;56376;53.356;-1.748;2023-05-10T03:02:41;98965.84;;;8.93;100.00
69257;BME280;56376;53.356;-1.748;2023-05-10T03:05:07;98964.88;;;8.96;100.00
69257;BME280;56376;53.356;-1.748;2023-05-10T03:07:33;98967.34;;;8.99;100.00
69257;BME280;56376;53.356;-1.748;2023-05-10T03:09:59;98975.78;;;9.05;100.00
69257;BME280;56376;53.356;-1.748;2023-05-10T03:12:33;98973.84;;;9.10;100.00
69257;BME280;56376;53.356;-1.748;2023-05-10T03:17:44;98964.88;;;9.18;100.00
69257;BME280;56376;53.356;-1.748;2023-05-10T03:20:24;98970.81;;;9.21;100.00
69257;BME280;56376;53.356;-1.748;2023-05-10T03:23:05;98970.78;;;9.23;100.00
69257;BME280;56376;53.356;-1.748;2023-05-10T03:25:33;98969.84;;;9.24;100.00
69257;BME280;56376;53.356;-1.748;2023-05-10T03:28:01;98969.06;;;9.22;100.00
69257;BME280;56376;53.356;-1.748;2023-05-10T03:30:27;98969.06;;;9.22;100.00
69257;BME280;56376;53.356;-1.748;2023-05-10T03:32:53;98972.75;;;9.16;100.00
69257;BME280;56376;53.356;-1.748;2023-05-10T03:35:19;98984.16;;;9.14;100.00
69257;BME280;56376;53.356;-1.748;2023-05-10T03:37:44;98972.94;;;9.12;100.00
69257;BME280;56376;53.356;-1.748;2023-05-10T03:40:10;98972.25;;;9.06;100.00
69257;BME280;56376;53.356;-1.748;2023-05-10T03:42:35;98980.16;;;9.05;100.00
69257;BME280;56376;53.356;-1.748;2023-05-10T03:45:01;98978.56;;;9.01;100.00
69257;BME280;56376;53.356;-1.748;2023-05-10T03:47:26;98982.09;;;9.00;100.00
69257;BME280;56376;53.356;-1.748;2023-05-10T03:49:52;98984.78;;;8.97;100.00
69257;BME280;56376;53.356;-1.748;2023-05-10T03:52:17;98987.47;;;8.95;100.00
69257;BME280;56376;53.356;-1.748;2023-05-10T03:54:43;98989.25;;;8.95;100.00
69257;BME280;56376;53.356;-1.748;2023-05-10T03:57:08;98985.75;;;8.94;100.00
69257;BME280;56376;53.356;-1.748;2023-05-10T03:59:34;98983.28;;;8.91;100.00
69257;BME280;56376;53.356;-1.748;2023-05-10T04:02:00;98989.41;;;8.90;100.00
69257;BME280;56376;53.356;-1.748;2023-05-10T04:04:25;98982.56;;;8.87;100.00
69257;BME280;56376;53.356;-1.748;2023-05-10T04:06:51;98983.44;;;8.86;100.00
69257;BME280;56376;53.356;-1.748;2023-05-10T04:09:16;98986.94;;;8.87;100.00
69257;BME280;56376;53.356;-1.748;2023-05-10T04:11:42;98980.97;;;8.83;100.00
69257;BME280;56376;53.356;-1.748;2023-05-10T04:14:08;98993.81;;;8.88;100.00
69257;BME280;56376;53.356;-1.748;2023-05-10T04:16:33;98992.06;;;8.88;100.00
69257;BME280;56376;53.356;-1.748;2023-05-10T04:18:58;98984.25;;;8.88;100.00
69257;BME280;56376;53.356;-1.748;2023-05-10T04:21:25;98985.22;;;8.86;100.00
69257;BME280;56376;53.356;-1.748;2023-05-10T04:23:50;98982.69;;;8.84;100.00
69257;BME280;56376;53.356;-1.748;2023-05-10T04:26:15;98984.50;;;8.82;100.00
69257;BME280;56376;53.356;-1.748;2023-05-10T04:28:41;98975.03;;;8.80;100.00
69257;BME280;56376;53.356;-1.748;2023-05-10T04:31:08;98978.59;;;8.77;100.00
69257;BME280;56376;53.356;-1.748;2023-05-10T04:33:34;98976.97;;;8.75;100.00
69257;BME280;56376;53.356;-1.748;2023-05-10T04:36:00;98977.06;;;8.72;100.00
69257;BME280;56376;53.356;-1.748;2023-05-10T04:38:26;98980.59;;;8.71;100.00
69257;BME280;56376;53.356;-1.748;2023-05-10T04:40:52;98979.06;;;8.65;100.00
69257;BME280;56376;53.356;-1.748;2023-05-10T04:43:18;98987.72;;;8.65;100.00
69257;BME280;56376;53.356;-1.748;2023-05-10T04:45:43;98979.09;;;8.63;100.00
69257;BME280;56376;53.356;-1.748;2023-05-10T04:48:08;98980.03;;;8.62;100.00
69257;BME280;56376;53.356;-1.748;2023-05-10T04:50:34;98981.03;;;8.58;100.00
69257;BME280;56376;53.356;-1.748;2023-05-10T04:52:59;98981.09;;;8.57;100.00
69257;BME280;56376;53.356;-1.748;2023-05-10T04:55:25;98982.84;;;8.56;100.00
69257;BME280;56376;53.356;-1.748;2023-05-10T04:57:52;98981.19;;;8.54;100.00
69257;BME280;56376;53.356;-1.748;2023-05-10T05:00:18;98978.66;;;8.52;100.00
69257;BME280;56376;53.356;-1.748;2023-05-10T05:02:44;98990.72;;;8.55;100.00
69257;BME280;56376;53.356;-1.748;2023-05-10T05:05:10;98991.59;;;8.54;100.00
69257;BME280;56376;53.356;-1.748;2023-05-10T05:07:36;98991.69;;;8.52;100.00
69257;BME280;56376;53.356;-1.748;2023-05-10T05:10:02;98997.78;;;8.51;100.00
69257;BME280;56376;53.356;-1.748;2023-05-10T05:12:28;98995.16;;;8.51;100.00
69257;BME280;56376;53.356;-1.748;2023-05-10T05:14:53;98994.31;;;8.51;100.00
69257;BME280;56376;53.356;-1.748;2023-05-10T05:17:18;99004.75;;;8.51;100.00
69257;BME280;56376;53.356;-1.748;2023-05-10T05:19:44;99002.09;;;8.52;100.00
69257;BME280;56376;53.356;-1.748;2023-05-10T05:22:09;99005.59;;;8.51;100.00
69257;BME280;56376;53.356;-1.748;2023-05-10T05:24:35;99006.38;;;8.53;100.00
69257;BME280;56376;53.356;-1.748;2023-05-10T05:27:04;99001.97;;;8.55;100.00
69257;BME280;56376;53.356;-1.748;2023-05-10T05:29:29;99003.56;;;8.59;100.00
69257;BME280;56376;53.356;-1.748;2023-05-10T05:31:55;99003.38;;;8.64;100.00
69257;BME280;56376;53.356;-1.748;2023-05-10T05:34:20;99004.84;;;8.71;100.00
69257;BME280;56376;53.356;-1.748;2023-05-10T05:36:47;98994.22;;;8.77;100.00
69257;BME280;56376;53.356;-1.748;2023-05-10T05:39:12;98999.16;;;8.85;100.00
69257;BME280;56376;53.356;-1.748;2023-05-10T05:41:37;99008.47;;;8.91;100.00
69257;BME280;56376;53.356;-1.748;2023-05-10T05:44:03;98995.13;;;9.00;100.00
69257;BME280;56376;53.356;-1.748;2023-05-10T05:46:28;98994.16;;;9.02;100.00
69257;BME280;56376;53.356;-1.748;2023-05-10T05:48:53;99004.94;;;9.15;100.00
69257;BME280;56376;53.356;-1.748;2023-05-10T05:51:19;98994.22;;;9.23;100.00
69257;BME280;56376;53.356;-1.748;2023-05-10T05:53:44;98999.06;;;9.32;100.00
69257;BME280;56376;53.356;-1.748;2023-05-10T05:56:10;99002.28;;;9.39;100.00
69257;BME280;56376;53.356;-1.748;2023-05-10T05:58:35;99004.53;;;9.48;100.00
69257;BME280;56376;53.356;-1.748;2023-05-10T06:01:01;99009.47;;;9.54;100.00
69257;BME280;56376;53.356;-1.748;2023-05-10T06:03:26;99008.63;;;9.53;100.00
69257;BME280;56376;53.356;-1.748;2023-05-10T06:05:51;99014.34;;;9.63;100.00
69257;BME280;56376;53.356;-1.748;2023-05-10T06:08:17;99018.25;;;9.73;100.00
69257;BME280;56376;53.356;-1.748;2023-05-10T06:10:42;99015.16;;;9.86;100.00
69257;BME280;56376;53.356;-1.748;2023-05-10T06:13:08;99013.56;;;10.02;100.00
69257;BME280;56376;53.356;-1.748;2023-05-10T06:15:33;99015.63;;;10.16;100.00
69257;BME280;56376;53.356;-1.748;2023-05-10T06:17:58;99019.38;;;10.31;100.00
69257;BME280;56376;53.356;-1.748;2023-05-10T06:20:24;99019.03;;;10.38;100.00
69257;BME280;56376;53.356;-1.748;2023-05-10T06:22:49;99009.09;;;10.47;100.00
69257;BME280;56376;53.356;-1.748;2023-05-10T06:25:15;99009.59;;;10.55;100.00
69257;BME280;56376;53.356;-1.748;2023-05-10T06:27:43;99016.75;;;10.70;100.00
69257;BME280;56376;53.356;-1.748;2023-05-10T06:30:09;99020.53;;;10.83;100.00
69257;BME280;56376;53.356;-1.748;2023-05-10T06:32:34;99028.56;;;10.98;100.00
69257;BME280;56376;53.356;-1.748;2023-05-10T06:35:00;99023.59;;;11.11;100.00
69257;BME280;56376;53.356;-1.748;2023-05-10T06:37:25;99027.44;;;11.22;100.00
69257;BME280;56376;53.356;-1.748;2023-05-10T06:39:50;99021.63;;;11.35;100.00
69257;BME280;56376;53.356;-1.748;2023-05-10T06:42:16;99027.88;;;11.50;100.00
69257;BME280;56376;53.356;-1.748;2023-05-10T06:44:41;99025.44;;;11.64;100.00
69257;BME280;56376;53.356;-1.748;2023-05-10T06:47:07;99028.16;;;11.80;100.00
69257;BME280;56376;53.356;-1.748;2023-05-10T06:49:32;99025.88;;;11.91;100.00
69257;BME280;56376;53.356;-1.748;2023-05-10T06:51:58;99028.84;;;12.02;100.00
69257;BME280;56376;53.356;-1.748;2023-05-10T06:54:23;99034.28;;;12.15;100.00
69257;BME280;56376;53.356;-1.748;2023-05-10T06:56:49;99029.19;;;12.29;100.00
69257;BME280;56376;53.356;-1.748;2023-05-10T06:59:14;99023.41;;;12.40;100.00
69257;BME280;56376;53.356;-1.748;2023-05-10T07:01:41;99028.56;;;12.42;100.00
69257;BME280;56376;53.356;-1.748;2023-05-10T07:04:11;99028.78;;;12.37;100.00
69257;BME280;56376;53.356;-1.748;2023-05-10T07:06:37;99024.81;;;12.30;100.00
69257;BME280;56376;53.356;-1.748;2023-05-10T07:09:03;99030.19;;;12.27;100.00
69257;BME280;56376;53.356;-1.748;2023-05-10T07:11:28;99036.53;;;12.23;100.00
69257;BME280;56376;53.356;-1.748;2023-05-10T07:13:54;99035.81;;;12.19;100.00
69257;BME280;56376;53.356;-1.748;2023-05-10T07:16:19;99037.81;;;12.14;100.00
69257;BME280;56376;53.356;-1.748;2023-05-10T07:18:44;99041.59;;;12.08;100.00
69257;BME280;56376;53.356;-1.748;2023-05-10T07:21:10;99047.84;;;12.06;100.00
69257;BME280;56376;53.356;-1.748;2023-05-10T07:23:35;99056.69;;;12.03;100.00
69257;BME280;56376;53.356;-1.748;2023-05-10T07:26:01;99050.63;;;12.03;100.00
69257;BME280;56376;53.356;-1.748;2023-05-10T07:28:27;99049.91;;;11.99;100.00
69257;BME280;56376;53.356;-1.748;2023-05-10T07:30:53;99049.16;;;11.97;100.00
69257;BME280;56376;53.356;-1.748;2023-05-10T07:33:18;99050.91;;;11.97;100.00
69257;BME280;56376;53.356;-1.748;2023-05-10T07:35:43;99047.44;;;11.96;100.00
69257;BME280;56376;53.356;-1.748;2023-05-10T07:38:09;99049.00;;;12.00;100.00
69257;BME280;56376;53.356;-1.748;2023-05-10T07:40:36;99049.63;;;12.05;100.00
69257;BME280;56376;53.356;-1.748;2023-05-10T07:43:02;99046.84;;;12.08;100.00
69257;BME280;56376;53.356;-1.748;2023-05-10T07:45:28;99049.16;;;12.15;100.00
69257;BME280;56376;53.356;-1.748;2023-05-10T07:47:53;99051.41;;;12.22;100.00
69257;BME280;56376;53.356;-1.748;2023-05-10T07:50:19;99043.44;;;12.24;100.00
69257;BME280;56376;53.356;-1.748;2023-05-10T07:52:44;99057.91;;;12.31;100.00
69257;BME280;56376;53.356;-1.748;2023-05-10T07:55:10;99041.13;;;12.35;100.00
69257;BME280;56376;53.356;-1.748;2023-05-10T07:57:35;99048.06;;;12.36;100.00
69257;BME280;56376;53.356;-1.748;2023-05-10T08:00:00;99036.50;;;12.40;100.00
69257;BME280;56376;53.356;-1.748;2023-05-10T08:02:26;99040.88;;;12.40;100.00
69257;BME280;56376;53.356;-1.748;2023-05-10T08:04:51;99054.84;;;12.40;100.00
69257;BME280;56376;53.356;-1.748;2023-05-10T08:07:17;99041.66;;;12.42;100.00
69257;BME280;56376;53.356;-1.748;2023-05-10T08:09:43;99044.97;;;12.45;100.00
69257;BME280;56376;53.356;-1.748;2023-05-10T08:12:08;99039.50;;;12.50;100.00
69257;BME280;56376;53.356;-1.748;2023-05-10T08:14:34;99039.25;;;12.54;100.00
69257;BME280;56376;53.356;-1.748;2023-05-10T08:17:02;99045.84;;;12.62;100.00
69257;BME280;56376;53.356;-1.748;2023-05-10T08:19:27;99047.31;;;12.67;100.00
69257;BME280;56376;53.356;-1.748;2023-05-10T08:21:52;99045.16;;;12.75;100.00
69257;BME280;56376;53.356;-1.748;2023-05-10T08:24:20;99042.78;;;12.87;100.00
69257;BME280;56376;53.356;-1.748;2023-05-10T08:26:45;99050.00;;;12.99;100.00
69257;BME280;56376;53.356;-1.748;2023-05-10T08:29:11;99043.41;;;13.08;100.00
69257;BME280;56376;53.356;-1.748;2023-05-10T08:31:37;99043.84;;;13.16;100.00
69257;BME280;56376;53.356;-1.748;2023-05-10T08:34:02;99047.91;;;13.21;100.00
69257;BME280;56376;53.356;-1.748;2023-05-10T08:36:27;99041.56;;;13.26;100.00
69257;BME280;56376;53.356;-1.748;2023-05-10T08:38:53;99039.88;;;13.25;100.00
69257;BME280;56376;53.356;-1.748;2023-05-10T08:41:20;99039.97;;;13.23;100.00
69257;BME280;56376;53.356;-1.748;2023-05-10T08:43:46;99038.19;;;13.24;100.00
69257;BME280;56376;53.356;-1.748;2023-05-10T08:46:16;99046.06;;;13.24;100.00
69257;BME280;56376;53.356;-1.748;2023-05-10T08:48:44;99050.47;;;13.23;100.00
69257;BME280;56376;53.356;-1.748;2023-05-10T08:51:17;99048.75;;;13.22;100.00
69257;BME280;56376;53.356;-1.748;2023-05-10T08:53:44;99055.53;;;13.26;100.00
69257;BME280;56376;53.356;-1.748;2023-05-10T08:56:09;99051.19;;;13.25;100.00
69257;BME280;56376;53.356;-1.748;2023-05-10T08:58:36;99053.81;;;13.25;100.00
69257;BME280;56376;53.356;-1.748;2023-05-10T09:01:02;99054.69;;;13.26;100.00
69257;BME280;56376;53.356;-1.748;2023-05-10T09:03:28;99053.81;;;13.25;100.00
69257;BME280;56376;53.356;-1.748;2023-05-10T09:05:53;99053.81;;;13.25;100.00
69257;BME280;56376;53.356;-1.748;2023-05-10T09:08:21;99064.47;;;13.22;100.00
69257;BME280;56376;53.356;-1.748;2023-05-10T09:10:50;99066.28;;;13.21;100.00
69257;BME280;56376;53.356;-1.748;2023-05-10T09:13:16;99063.66;;;13.21;100.00
69257;BME280;56376;53.356;-1.748;2023-05-10T09:15:43;99061.09;;;13.20;100.00
69257;BME280;56376;53.356;-1.748;2023-05-10T09:18:09;99066.28;;;13.21;100.00
69257;BME280;56376;53.356;-1.748;2023-05-10T09:20:35;99065.44;;;13.21;100.00
69257;BME280;56376;53.356;-1.748;2023-05-10T09:23:01;99060.94;;;13.23;100.00
69257;BME280;56376;53.356;-1.748;2023-05-10T09:25:26;99061.69;;;13.25;100.00
69257;BME280;56376;53.356;-1.748;2023-05-10T09:27:52;99056.91;;;13.33;100.00
69257;BME280;56376;53.356;-1.748;2023-05-10T09:30:28;99044.22;;;13.41;100.00
69257;BME280;56376;53.356;-1.748;2023-05-10T09:32:55;99052.44;;;13.51;100.00
69257;BME280;56376;53.356;-1.748;2023-05-10T09:35:22;99051.41;;;13.54;100.00
69257;BME280;56376;53.356;-1.748;2023-05-10T09:37:51;99055.97;;;13.66;100.00
69257;BME280;56376;53.356;-1.748;2023-05-10T09:40:18;99059.00;;;13.74;100.00
69257;BME280;56376;53.356;-1.748;2023-05-10T09:42:56;99056.72;;;13.84;100.00
69257;BME280;56376;53.356;-1.748;2023-05-10T09:45:23;99053.47;;;13.95;100.00
69257;BME280;56376;53.356;-1.748;2023-05-10T09:47:49;99052.56;;;14.10;100.00
69257;BME280;56376;53.356;-1.748;2023-05-10T09:50:14;99056.00;;;14.26;100.00
69257;BME280;56376;53.356;-1.748;2023-05-10T09:52:54;99049.25;;;14.37;100.00
69257;BME280;56376;53.356;-1.748;2023-05-10T09:55:37;99055.66;;;14.47;100.00
69257;BME280;56376;53.356;-1.748;2023-05-10T09:58:03;99049.84;;;14.56;100.00
69257;BME280;56376;53.356;-1.748;2023-05-10T10:00:35;99045.56;;;14.55;100.00
69257;BME280;56376;53.356;-1.748;2023-05-10T10:03:01;99044.72;;;14.55;100.00
69257;BME280;56376;53.356;-1.748;2023-05-10T10:05:34;99044.59;;;14.56;100.00
69257;BME280;56376;53.356;-1.748;2023-05-10T10:08:06;99046.50;;;14.54;100.00
69257;BME280;56376;53.356;-1.748;2023-05-10T10:10:32;99040.66;;;14.49;100.00
69257;BME280;56376;53.356;-1.748;2023-05-10T10:12:58;99042.72;;;14.44;100.00
69257;BME280;56376;53.356;-1.748;2023-05-10T10:15:25;99048.88;;;14.43;100.00
69257;BME280;56376;53.356;-1.748;2023-05-10T10:17:52;99048.13;;;14.41;100.00
69257;BME280;56376;53.356;-1.748;2023-05-10T10:20:18;99052.47;;;14.42;100.00
69257;BME280;56376;53.356;-1.748;2023-05-10T10:22:44;99042.28;;;14.36;100.00
69257;BME280;56376;53.356;-1.748;2023-05-10T10:25:12;99051.41;;;14.30;100.00
69257;BME280;56376;53.356;-1.748;2023-05-10T10:27:58;99057.88;;;14.24;100.00
69257;BME280;56376;53.356;-1.748;2023-05-10T10:30:43;99058.69;;;14.25;100.00
69257;BME280;56376;53.356;-1.748;2023-05-10T10:35:53;99073.22;;;14.16;100.00
69257;BME280;56376;53.356;-1.748;2023-05-10T10:38:20;99074.34;;;14.12;100.00
69257;BME280;56376;53.356;-1.748;2023-05-10T10:40:45;99066.78;;;14.06;100.00
69257;BME280;56376;53.356;-1.748;2023-05-10T10:43:37;99064.47;;;14.01;100.00
69257;BME280;56376;53.356;-1.748;2023-05-10T10:48:41;99051.22;;;14.03;100.00
69257;BME280;56376;53.356;-1.748;2023-05-10T10:51:07;99047.50;;;14.07;100.00
69257;BME280;56376;53.356;-1.748;2023-05-10T10:53:32;99050.78;;;14.11;100.00
69257;BME280;56376;53.356;-1.748;2023-05-10T10:56:21;99044.91;;;14.21;100.00
69257;BME280;56376;53.356;-1.748;2023-05-10T10:58:50;99036.28;;;14.34;100.00
69257;BME280;56376;53.356;-1.748;2023-05-10T11:01:18;99034.34;;;14.37;100.00
69257;BME280;56376;53.356;-1.748;2023-05-10T11:06:35;99030.59;;;14.41;100.00
69257;BME280;56376;53.356;-1.748;2023-05-10T11:09:11;99028.88;;;14.40;100.00
69257;BME280;56376;53.356;-1.748;2023-05-10T11:11:49;99028.69;;;14.43;100.00
69257;BME280;56376;53.356;-1.748;2023-05-10T11:14:20;99018.88;;;14.47;100.00
69257;BME280;56376;53.356;-1.748;2023-05-10T11:16:45;99016.81;;;14.52;100.00
69257;BME280;56376;53.356;-1.748;2023-05-10T11:19:12;99013.06;;;14.56;100.00
69257;BME280;56376;53.356;-1.748;2023-05-10T11:24:29;99025.88;;;14.77;100.00
69257;BME280;56376;53.356;-1.748;2023-05-10T11:26:54;99018.69;;;14.79;100.00
69257;BME280;56376;53.356;-1.748;2023-05-10T11:29:20;99023.97;;;14.79;100.00
69257;BME280;56376;53.356;-1.748;2023-05-10T11:31:46;99029.69;;;14.85;100.00
69257;BME280;56376;53.356;-1.748;2023-05-10T11:34:31;99025.75;;;14.92;100.00
69257;BME280;56376;53.356;-1.748;2023-05-10T11:37:00;99028.94;;;14.98;100.00
69257;BME280;56376;53.356;-1.748;2023-05-10T11:39:27;99023.28;;;15.04;100.00
69257;BME280;56376;53.356;-1.748;2023-05-10T11:41:53;99026.66;;;15.06;100.00
69257;BME280;56376;53.356;-1.748;2023-05-10T11:44:18;99032.47;;;15.11;100.00
69257;BME280;56376;53.356;-1.748;2023-05-10T11:46:44;99026.94;;;15.01;100.00
69257;BME280;56376;53.356;-1.748;2023-05-10T11:49:09;99041.53;;;14.92;98.91
69257;BME280;56376;53.356;-1.748;2023-05-10T11:51:35;99039.94;;;14.76;100.00
69257;BME280;56376;53.356;-1.748;2023-05-10T11:54:05;99056.25;;;14.66;100.00
69257;BME280;56376;53.356;-1.748;2023-05-10T11:56:32;99060.38;;;14.56;100.00
69257;BME280;56376;53.356;-1.748;2023-05-10T11:58:58;99061.09;;;14.44;96.73
69257;BME280;56376;53.356;-1.748;2023-05-10T12:01:25;99057.09;;;14.22;97.71
69257;BME280;56376;53.356;-1.748;2023-05-10T12:03:52;99053.84;;;14.03;100.00
69257;BME280;56376;53.356;-1.748;2023-05-10T12:06:19;99048.97;;;13.97;100.00
69257;BME280;56376;53.356;-1.748;2023-05-10T12:08:47;99045.41;;;13.98;100.00
69257;BME280;56376;53.356;-1.748;2023-05-10T12:11:13;99034.69;;;14.01;100.00
69257;BME280;56376;53.356;-1.748;2023-05-10T12:13:41;99036.81;;;14.10;100.00
69257;BME280;56376;53.356;-1.748;2023-05-10T12:16:19;99038.72;;;14.22;100.00
69257;BME280;56376;53.356;-1.748;2023-05-10T12:18:45;99034.50;;;14.20;100.00
69257;BME280;56376;53.356;-1.748;2023-05-10T12:21:13;99046.84;;;14.18;100.00
69257;BME280;56376;53.356;-1.748;2023-05-10T12:23:40;99040.59;;;14.20;100.00
69257;BME280;56376;53.356;-1.748;2023-05-10T12:26:08;99037.16;;;14.34;100.00
69257;BME280;56376;53.356;-1.748;2023-05-10T12:28:34;99030.75;;;14.54;100.00
69257;BME280;56376;53.356;-1.748;2023-05-10T12:31:01;99029.59;;;14.73;100.00
69257;BME280;56376;53.356;-1.748;2023-05-10T12:33:27;99018.97;;;14.88;100.00
69257;BME280;56376;53.356;-1.748;2023-05-10T12:35:54;99017.09;;;15.05;100.00
69257;BME280;56376;53.356;-1.748;2023-05-10T12:38:36;99020.63;;;15.18;100.00
69257;BME280;56376;53.356;-1.748;2023-05-10T12:41:10;99031.78;;;15.22;100.00
69257;BME280;56376;53.356;-1.748;2023-05-10T12:43:36;99030.69;;;15.11;99.37
69257;BME280;56376;53.356;-1.748;2023-05-10T12:46:17;99041.97;;;14.99;99.14
69257;BME280;56376;53.356;-1.748;2023-05-10T12:48:43;99054.66;;;14.78;97.54
69257;BME280;56376;53.356;-1.748;2023-05-10T12:51:10;99053.44;;;14.55;100.00
69257;BME280;56376;53.356;-1.748;2023-05-10T12:53:37;99065.03;;;14.37;100.00
69257;BME280;56376;53.356;-1.748;2023-05-10T12:56:03;99062.28;;;14.24;100.00
69257;BME280;56376;53.356;-1.748;2023-05-10T12:58:28;99065.34;;;14.16;100.00
69257;BME280;56376;53.356;-1.748;2023-05-10T13:00:53;99062.22;;;14.10;100.00
69257;BME280;56376;53.356;-1.748;2023-05-10T13:03:21;99064.59;;;14.14;100.00
69257;BME280;56376;53.356;-1.748;2023-05-10T13:05:46;99066.84;;;14.20;100.00
69257;BME280;56376;53.356;-1.748;2023-05-10T13:08:12;99063.19;;;14.23;100.00